Time;durP1;ratioP1;P1;durP2;ratioP2;P2;SDS_P1;SDS_P2;PMS_P1;PMS_P2;Temp;Humidity;BMP_temperature;BMP_pressure;BME280_temperature;BME280_humidity;BME280_pressure;Samples;Min_cycle;Max_cycle;Signal;HPM_P1;HPM_P2
2023/05/29 00:02:13;;;;;;;9.80;3.72;;;;;;;;;;5052370;28;20096;-75
2023/05/29 00:04:38;;;;;;;9.43;3.50;;;;;;;;;;5052620;28;20075;-73
2023/05/29 00:07:05;;;;;;;7.30;3.60;;;;;;;;;;5034109;28;20508;-73
2023/05/29 00:09:30;;;;;;;11.50;3.60;;;;;;;;;;5017651;28;20036;-73
2023/05/29 00:11:56;;;;;;;7.00;3.50;;;;;;;;;;5033951;28;20020;-75
2023/05/29 00:14:23;;;;;;;12.95;3.78;;;;;;;;;;5033826;28;20074;-74
2023/05/29 00:16:50;;;;;;;8.45;3.88;;;;;;;;;;5033372;28;20013;-74
2023/05/29 00:19:19;;;;;;;7.80;3.58;;;;;;;;;;5051890;28;20039;-75
2023/05/29 00:21:47;;;;;;;7.53;3.63;;;;;;;;;;5052239;28;20437;-75
2023/05/29 00:24:15;;;;;;;8.88;3.60;;;;;;;;;;5033570;28;20044;-74
2023/05/29 00:26:41;;;;;;;6.55;3.53;;;;;;;;;;5017552;28;20327;-76
2023/05/29 00:29:06;;;;;;;6.85;3.72;;;;;;;;;;5033405;28;20062;-76
2023/05/29 00:31:32;;;;;;;12.10;3.30;;;;;;;;;;5033989;28;20040;-76
2023/05/29 00:33:58;;;;;;;7.78;3.45;;;;;;;;;;5033638;28;20121;-75
2023/05/29 00:36:24;;;;;;;5.88;3.00;;;;;;;;;;5051771;28;20025;-75
2023/05/29 00:38:49;;;;;;;7.05;4.05;;;;;;;;;;5051571;28;20066;-76
2023/05/29 00:41:15;;;;;;;10.50;4.03;;;;;;;;;;5033448;28;20131;-76
2023/05/29 00:43:42;;;;;;;7.85;3.80;;;;;;;;;;5033684;28;20284;-75
2023/05/29 00:46:09;;;;;;;11.05;4.15;;;;;;;;;;5017004;28;20133;-75
2023/05/29 00:48:35;;;;;;;8.80;4.45;;;;;;;;;;5033592;28;20032;-76
2023/05/29 00:51:01;;;;;;;12.82;4.55;;;;;;;;;;5051327;28;20039;-76
2023/05/29 00:53:27;;;;;;;5.57;3.30;;;;;;;;;;5051964;28;20028;-78
2023/05/29 00:55:53;;;;;;;7.22;3.45;;;;;;;;;;5051719;28;20029;-75
2023/05/29 00:58:20;;;;;;;6.82;4.10;;;;;;;;;;5032717;28;20083;-74
2023/05/29 01:00:47;;;;;;;8.05;3.58;;;;;;;;;;5033106;28;20035;-74
2023/05/29 01:03:17;;;;;;;6.38;3.88;;;;;;;;;;5050791;28;20129;-74
2023/05/29 01:05:43;;;;;;;6.40;3.53;;;;;;;;;;5050555;28;20450;-74
2023/05/29 01:08:09;;;;;;;6.53;3.67;;;;;;;;;;5050252;28;20037;-75
2023/05/29 01:10:35;;;;;;;10.27;4.35;;;;;;;;;;5050408;28;20082;-75
2023/05/29 01:13:13;;;;;;;9.18;4.22;;;;;;;;;;5050839;28;20036;-75
2023/05/29 01:15:53;;;;;;;7.50;3.95;;;;;;;;;;5033113;28;20120;-75
2023/05/29 01:18:41;;;;;;;8.73;4.32;;;;;;;;;;5033541;28;20119;-76
2023/05/29 01:21:35;;;;;;;10.63;4.55;;;;;;;;;;5034263;28;20031;-75
2023/05/29 01:24:04;;;;;;;9.15;4.65;;;;;;;;;;5032757;28;20486;-77
2023/05/29 01:26:55;;;;;;;9.18;4.53;;;;;;;;;;5033045;28;20040;-74
2023/05/29 01:29:32;;;;;;;9.15;4.13;;;;;;;;;;5031882;28;20025;-75
2023/05/29 01:31:58;;;;;;;8.13;4.22;;;;;;;;;;5051196;28;20036;-74
2023/05/29 01:34:24;;;;;;;8.35;4.70;;;;;;;;;;5051559;28;20017;-75
2023/05/29 01:36:50;;;;;;;10.57;4.88;;;;;;;;;;5018887;28;20422;-76
2023/05/29 01:39:16;;;;;;;12.70;4.63;;;;;;;;;;5036911;28;20025;-75
2023/05/29 01:41:44;;;;;;;9.73;5.15;;;;;;;;;;5041451;28;20025;-76
2023/05/29 01:44:11;;;;;;;14.93;5.07;;;;;;;;;;5056437;28;20024;-77
2023/05/29 01:46:41;;;;;;;9.60;4.93;;;;;;;;;;5034479;28;20040;-76
2023/05/29 01:49:16;;;;;;;8.57;4.75;;;;;;;;;;5135089;27;20703;-75
2023/05/29 01:51:42;;;;;;;10.38;4.47;;;;;;;;;;5097666;28;20119;-76
2023/05/29 01:54:09;;;;;;;7.97;4.50;;;;;;;;;;5080052;28;20391;-76
2023/05/29 01:56:35;;;;;;;6.63;4.32;;;;;;;;;;5077229;28;20094;-75
2023/05/29 01:59:02;;;;;;;7.07;4.95;;;;;;;;;;5077306;28;20469;-76
2023/05/29 02:01:32;;;;;;;11.23;4.53;;;;;;;;;;5076708;28;20024;-77
2023/05/29 02:03:58;;;;;;;7.75;4.28;;;;;;;;;;5076591;28;20032;-76
2023/05/29 02:06:24;;;;;;;10.90;6.47;;;;;;;;;;5095069;28;20028;-76
2023/05/29 02:08:50;;;;;;;12.65;4.68;;;;;;;;;;5094624;28;20036;-77
2023/05/29 02:11:17;;;;;;;7.30;4.25;;;;;;;;;;5075680;28;20054;-75
2023/05/29 02:13:42;;;;;;;9.23;4.50;;;;;;;;;;5076711;28;20464;-76
2023/05/29 02:16:08;;;;;;;14.75;4.50;;;;;;;;;;5075871;28;20089;-76
2023/05/29 02:18:34;;;;;;;8.70;4.30;;;;;;;;;;5076025;28;20058;-77
2023/05/29 02:21:00;;;;;;;7.30;4.60;;;;;;;;;;5075669;28;20020;-75
2023/05/29 02:23:26;;;;;;;10.38;4.55;;;;;;;;;;5076330;28;20028;-74
2023/05/29 02:25:54;;;;;;;12.65;5.43;;;;;;;;;;5076779;28;20114;-75
2023/05/29 02:28:20;;;;;;;12.55;4.82;;;;;;;;;;5094391;28;20118;-76
2023/05/29 02:30:46;;;;;;;10.35;4.65;;;;;;;;;;5095129;28;20024;-75
2023/05/29 02:33:12;;;;;;;9.68;4.03;;;;;;;;;;5075927;28;20391;-75
2023/05/29 02:35:37;;;;;;;10.27;4.57;;;;;;;;;;5093835;28;20032;-75
2023/05/29 02:38:03;;;;;;;7.22;4.72;;;;;;;;;;5075397;28;20028;-75
2023/05/29 02:40:31;;;;;;;8.32;4.80;;;;;;;;;;5094116;28;20387;-75
2023/05/29 02:42:57;;;;;;;8.50;4.22;;;;;;;;;;5076487;28;20468;-77
2023/05/29 02:45:23;;;;;;;9.70;5.10;;;;;;;;;;5093739;28;20035;-75
2023/05/29 02:47:48;;;;;;;11.13;4.90;;;;;;;;;;5080575;28;20043;-73
2023/05/29 02:50:14;;;;;;;7.20;4.72;;;;;;;;;;5093616;28;20035;-76
2023/05/29 02:52:40;;;;;;;8.05;4.43;;;;;;;;;;5092412;28;20052;-74
2023/05/29 02:55:06;;;;;;;9.57;4.68;;;;;;;;;;5092515;28;20040;-77
2023/05/29 02:57:35;;;;;;;8.93;4.72;;;;;;;;;;5093529;28;20020;-76
2023/05/29 03:00:05;;;;;;;10.10;4.60;;;;;;;;;;5081749;28;20035;-78
2023/05/29 03:02:31;;;;;;;9.10;4.35;;;;;;;;;;5079062;28;20553;-76
2023/05/29 03:04:57;;;;;;;9.50;4.90;;;;;;;;;;5079079;28;20028;-77
2023/05/29 03:07:25;;;;;;;11.82;4.72;;;;;;;;;;5080112;28;20028;-74
2023/05/29 03:09:52;;;;;;;11.90;4.53;;;;;;;;;;5079541;28;20025;-76
2023/05/29 03:12:18;;;;;;;11.82;4.97;;;;;;;;;;5079532;28;20393;-75
2023/05/29 03:14:44;;;;;;;8.70;4.97;;;;;;;;;;5079432;28;20109;-74
2023/05/29 03:17:11;;;;;;;6.75;4.32;;;;;;;;;;5080144;28;20020;-75
2023/05/29 03:19:38;;;;;;;8.75;4.15;;;;;;;;;;5081716;28;20054;-76
2023/05/29 03:22:05;;;;;;;8.35;4.30;;;;;;;;;;5080106;28;20048;-76
2023/05/29 03:24:30;;;;;;;15.02;4.93;;;;;;;;;;5078864;28;20583;-77
2023/05/29 03:26:56;;;;;;;13.73;4.60;;;;;;;;;;5078707;28;20052;-76
2023/05/29 03:29:22;;;;;;;9.98;4.18;;;;;;;;;;5078531;28;20029;-76
2023/05/29 03:31:52;;;;;;;9.63;4.78;;;;;;;;;;5079207;28;20467;-75
2023/05/29 03:34:18;;;;;;;15.23;5.90;;;;;;;;;;5078720;28;20028;-75
2023/05/29 03:36:46;;;;;;;9.73;4.72;;;;;;;;;;5078538;28;20510;-77
2023/05/29 03:39:12;;;;;;;8.05;4.15;;;;;;;;;;5079563;28;20028;-77
2023/05/29 03:41:39;;;;;;;10.20;4.82;;;;;;;;;;5078538;28;20031;-76
2023/05/29 03:44:05;;;;;;;12.63;4.72;;;;;;;;;;5078905;28;20113;-77
2023/05/29 03:46:31;;;;;;;9.88;4.10;;;;;;;;;;5078649;28;20052;-76
2023/05/29 03:48:57;;;;;;;6.90;4.43;;;;;;;;;;5078920;28;20100;-76
2023/05/29 03:51:23;;;;;;;11.63;4.95;;;;;;;;;;5078185;28;20048;-77
2023/05/29 03:53:50;;;;;;;20.80;5.43;;;;;;;;;;5078106;28;20025;-77
2023/05/29 03:56:19;;;;;;;12.25;4.78;;;;;;;;;;5079362;28;20032;-76
2023/05/29 03:58:45;;;;;;;11.82;4.70;;;;;;;;;;5079610;28;20465;-76
2023/05/29 04:01:10;;;;;;;13.05;5.50;;;;;;;;;;5078241;28;20111;-76
2023/05/29 04:03:39;;;;;;;14.23;5.68;;;;;;;;;;5078487;28;20047;-76
2023/05/29 04:06:05;;;;;;;13.50;5.15;;;;;;;;;;5078908;28;20025;-78
2023/05/29 04:08:31;;;;;;;16.33;6.40;;;;;;;;;;5079294;28;20054;-75
2023/05/29 04:10:57;;;;;;;13.73;4.43;;;;;;;;;;5077611;28;20029;-75
2023/05/29 04:13:22;;;;;;;9.07;4.50;;;;;;;;;;5077971;28;20111;-75
2023/05/29 04:15:48;;;;;;;10.65;5.05;;;;;;;;;;5078521;28;20024;-75
2023/05/29 04:18:15;;;;;;;9.13;4.50;;;;;;;;;;5077922;28;20017;-77
2023/05/29 04:20:41;;;;;;;9.93;3.90;;;;;;;;;;5079512;28;20020;-76
2023/05/29 04:23:07;;;;;;;8.15;4.78;;;;;;;;;;5076978;28;20051;-77
2023/05/29 04:25:34;;;;;;;16.55;5.65;;;;;;;;;;5079481;28;20052;-74
2023/05/29 04:28:02;;;;;;;10.55;5.30;;;;;;;;;;5077262;28;20024;-76
2023/05/29 04:30:28;;;;;;;9.25;4.20;;;;;;;;;;5077646;28;20047;-77
2023/05/29 04:32:57;;;;;;;11.20;5.45;;;;;;;;;;5078226;28;20468;-76
2023/05/29 04:35:23;;;;;;;17.20;6.25;;;;;;;;;;5077553;28;20031;-76
2023/05/29 04:37:48;;;;;;;11.23;5.50;;;;;;;;;;5078828;28;20020;-77
2023/05/29 04:40:17;;;;;;;11.52;4.88;;;;;;;;;;5078864;28;20035;-77
2023/05/29 04:42:46;;;;;;;10.02;5.10;;;;;;;;;;5077749;28;20040;-76
2023/05/29 04:45:16;;;;;;;14.30;5.20;;;;;;;;;;5077408;28;20042;-77
2023/05/29 04:47:44;;;;;;;9.32;4.63;;;;;;;;;;5071269;28;20044;-76
2023/05/29 04:50:13;;;;;;;8.88;4.63;;;;;;;;;;5041678;28;20385;-76
2023/05/29 04:52:39;;;;;;;19.77;6.13;;;;;;;;;;5057744;28;20029;-77
2023/05/29 04:55:06;;;;;;;12.57;5.10;;;;;;;;;;5040919;28;20035;-76
2023/05/29 04:57:35;;;;;;;10.23;5.60;;;;;;;;;;5040937;28;20021;-76
2023/05/29 05:00:05;;;;;;;9.43;5.07;;;;;;;;;;5040957;28;20024;-76
2023/05/29 05:02:32;;;;;;;18.45;5.82;;;;;;;;;;5041126;28;20063;-77
2023/05/29 05:04:59;;;;;;;11.23;5.05;;;;;;;;;;5040552;28;20025;-76
2023/05/29 05:07:31;;;;;;;15.57;5.22;;;;;;;;;;5040268;28;20029;-77
2023/05/29 05:09:57;;;;;;;8.07;4.68;;;;;;;;;;5038360;28;20111;-76
2023/05/29 05:12:23;;;;;;;13.23;5.72;;;;;;;;;;5052876;28;20024;-76
2023/05/29 05:14:49;;;;;;;8.88;4.70;;;;;;;;;;5039544;28;20043;-76
2023/05/29 05:17:21;;;;;;;10.93;4.07;;;;;;;;;;5034886;28;20088;-77
2023/05/29 05:20:13;;;;;;;7.35;4.07;;;;;;;;;;5040610;28;20029;-78
2023/05/29 05:22:38;;;;;;;16.33;6.50;;;;;;;;;;5051136;28;20747;-79
2023/05/29 05:25:07;;;;;;;12.18;4.43;;;;;;;;;;5042903;28;20040;-78
2023/05/29 05:27:34;;;;;;;23.98;5.68;;;;;;;;;;5054187;28;20033;-79
2023/05/29 05:30:00;;;;;;;12.38;4.60;;;;;;;;;;5040141;28;20025;-77
2023/05/29 05:32:26;;;;;;;8.80;4.40;;;;;;;;;;5059070;28;20039;-78
2023/05/29 05:34:55;;;;;;;8.77;4.80;;;;;;;;;;5056334;28;20025;-80
2023/05/29 05:37:23;;;;;;;7.55;4.28;;;;;;;;;;5046052;28;20020;-78
2023/05/29 05:39:53;;;;;;;14.05;5.68;;;;;;;;;;5038091;28;20035;-78
2023/05/29 05:42:19;;;;;;;11.30;5.03;;;;;;;;;;5017452;28;20121;-77
2023/05/29 05:44:53;;;;;;;14.00;4.10;;;;;;;;;;5050561;28;20029;-78
2023/05/29 05:47:19;;;;;;;9.77;4.60;;;;;;;;;;5062798;28;20044;-77
2023/05/29 05:49:51;;;;;;;10.43;4.43;;;;;;;;;;5033718;28;20029;-77
2023/05/29 05:52:19;;;;;;;12.02;4.65;;;;;;;;;;5037582;28;20028;-77
2023/05/29 05:54:46;;;;;;;11.23;5.25;;;;;;;;;;5055903;28;20032;-77
2023/05/29 05:57:12;;;;;;;17.05;8.02;;;;;;;;;;5030482;28;20029;-79
2023/05/29 05:59:37;;;;;;;13.88;6.15;;;;;;;;;;5057372;28;20119;-78
2023/05/29 06:02:04;;;;;;;11.68;4.57;;;;;;;;;;5056559;28;20028;-78
2023/05/29 06:04:30;;;;;;;7.78;3.60;;;;;;;;;;5034304;28;20013;-77
2023/05/29 06:06:59;;;;;;;8.80;4.53;;;;;;;;;;5055987;28;20478;-77
2023/05/29 06:09:27;;;;;;;11.82;4.78;;;;;;;;;;5040130;28;20033;-79
2023/05/29 06:11:58;;;;;;;7.32;4.55;;;;;;;;;;5042452;28;20298;-78
2023/05/29 06:14:26;;;;;;;15.20;6.20;;;;;;;;;;5037651;28;20027;-78
2023/05/29 06:16:53;;;;;;;13.00;4.53;;;;;;;;;;5055178;28;20030;-79
2023/05/29 06:19:19;;;;;;;10.82;5.20;;;;;;;;;;5038200;28;20055;-77
2023/05/29 06:21:45;;;;;;;10.93;4.90;;;;;;;;;;5038494;28;20048;-80
2023/05/29 06:24:12;;;;;;;11.77;4.43;;;;;;;;;;5036907;28;20083;-79
2023/05/29 06:26:42;;;;;;;10.63;4.13;;;;;;;;;;5030890;28;20017;-78
2023/05/29 06:29:11;;;;;;;14.60;5.32;;;;;;;;;;5032537;28;20041;-76
2023/05/29 06:31:37;;;;;;;9.98;4.85;;;;;;;;;;5042158;28;20036;-78
2023/05/29 06:34:07;;;;;;;15.10;5.25;;;;;;;;;;5039756;28;20044;-77
2023/05/29 06:36:34;;;;;;;10.00;4.53;;;;;;;;;;5037541;28;20021;-78
2023/05/29 06:39:00;;;;;;;12.55;4.00;;;;;;;;;;5044392;28;20292;-77
2023/05/29 06:41:26;;;;;;;10.77;4.00;;;;;;;;;;5057652;28;20036;-77
2023/05/29 06:44:12;;;;;;;;;;;;;;;;;;;;;
2023/05/29 06:46:44;;;;;;;14.25;4.85;;;;;;;;;;5058409;28;20101;-81
2023/05/29 06:49:13;;;;;;;12.18;4.75;;;;;;;;;;5086207;28;20029;-79
2023/05/29 06:51:39;;;;;;;13.18;4.80;;;;;;;;;;5083728;28;20087;-82
2023/05/29 06:54:30;;;;;;;8.43;4.32;;;;;;;;;;5088185;28;20032;-82
2023/05/29 06:57:24;;;;;;;8.68;3.67;;;;;;;;;;5077205;28;20457;-83
2023/05/29 07:03:04;;;;;;;9.80;4.38;;;;;;;;;;5015484;28;20030;-81
2023/05/29 07:05:33;;;;;;;8.40;4.07;;;;;;;;;;5073719;28;20040;-80
2023/05/29 07:08:08;;;;;;;10.02;3.83;;;;;;;;;;5084246;28;20024;-80
2023/05/29 07:11:18;;;;;;;10.93;3.97;;;;;;;;;;5090671;28;20059;-81
2023/05/29 07:17:17;;;;;;;12.43;4.53;;;;;;;;;;5020966;28;20050;-83
2023/05/29 07:19:43;;;;;;;5.05;2.70;;;;;;;;;;5022327;28;20405;-79
2023/05/29 07:22:15;;;;;;;5.82;2.85;;;;;;;;;;5021866;28;20041;-87
2023/05/29 07:28:38;;;;;;;9.32;3.35;;;;;;;;;;4971066;28;20538;-82
2023/05/29 07:31:15;;;;;;;8.75;3.50;;;;;;;;;;4953442;28;20078;-80
2023/05/29 07:37:51;;;;;;;;;;;;;;;;;;;;;
2023/05/29 07:43:45;;;;;;;8.80;3.17;;;;;;;;;;5006915;28;20114;-79
2023/05/29 07:46:37;;;;;;;8.77;3.13;;;;;;;;;;5002666;28;20040;-81
2023/05/29 07:49:03;;;;;;;4.55;2.70;;;;;;;;;;5003213;28;20127;-81
2023/05/29 07:51:32;;;;;;;9.70;3.45;;;;;;;;;;5017573;28;20037;-81
2023/05/29 07:54:00;;;;;;;6.95;2.95;;;;;;;;;;5096825;22;20569;-77
2023/05/29 07:56:26;;;;;;;10.73;4.03;;;;;;;;;;5003999;28;20412;-74
2023/05/29 07:59:11;;;;;;;11.40;3.40;;;;;;;;;;4990170;28;20117;-76
2023/05/29 08:01:40;;;;;;;7.75;3.05;;;;;;;;;;4995634;28;20544;-77
2023/05/29 08:04:06;;;;;;;5.65;2.90;;;;;;;;;;4990854;28;20029;-75
2023/05/29 08:06:34;;;;;;;5.38;2.20;;;;;;;;;;4997253;28;20040;-76
2023/05/29 08:09:00;;;;;;;4.38;2.00;;;;;;;;;;4999365;28;20041;-74
2023/05/29 08:11:26;;;;;;;6.30;2.17;;;;;;;;;;4993560;28;20041;-76
2023/05/29 08:13:51;;;;;;;9.05;2.53;;;;;;;;;;5012915;28;20036;-74
2023/05/29 08:16:17;;;;;;;4.03;1.92;;;;;;;;;;5004483;28;20048;-75
2023/05/29 08:18:43;;;;;;;7.03;2.47;;;;;;;;;;4975134;28;20040;-74
2023/05/29 08:21:11;;;;;;;5.47;2.45;;;;;;;;;;4990119;28;20061;-74
2023/05/29 08:23:37;;;;;;;7.85;3.00;;;;;;;;;;4995722;28;20053;-73
2023/05/29 08:26:04;;;;;;;7.38;2.20;;;;;;;;;;4995472;28;20053;-74
2023/05/29 08:28:30;;;;;;;3.33;1.92;;;;;;;;;;4993092;28;20030;-74
2023/05/29 08:30:56;;;;;;;9.70;2.50;;;;;;;;;;5011193;28;20030;-74
2023/05/29 08:33:22;;;;;;;6.15;2.67;;;;;;;;;;4991869;28;20069;-74
2023/05/29 08:35:51;;;;;;;3.03;2.28;;;;;;;;;;5002234;28;20041;-74
2023/05/29 08:38:17;;;;;;;3.28;1.90;;;;;;;;;;4994991;28;20109;-75
2023/05/29 08:40:43;;;;;;;7.53;2.03;;;;;;;;;;4994185;28;20025;-75
2023/05/29 08:43:20;;;;;;;3.92;2.22;;;;;;;;;;4995683;28;20261;-75
2023/05/29 08:45:51;;;;;;;2.53;1.85;;;;;;;;;;4999586;28;20420;-76
2023/05/29 08:48:23;;;;;;;5.03;2.03;;;;;;;;;;4994416;28;20073;-74
2023/05/29 08:51:07;;;;;;;4.03;1.98;;;;;;;;;;4998346;28;20041;-74
2023/05/29 08:53:33;;;;;;;3.72;2.30;;;;;;;;;;4998855;28;20054;-74
2023/05/29 08:56:01;;;;;;;5.82;2.17;;;;;;;;;;5000995;28;20131;-73
2023/05/29 08:58:27;;;;;;;7.35;2.50;;;;;;;;;;5000528;28;20029;-74
2023/05/29 09:00:55;;;;;;;9.70;2.50;;;;;;;;;;5008395;28;20072;-75
2023/05/29 09:03:22;;;;;;;4.60;2.22;;;;;;;;;;5007423;28;20029;-76
2023/05/29 09:05:58;;;;;;;4.25;2.00;;;;;;;;;;5011628;28;20044;-73
2023/05/29 09:08:27;;;;;;;3.10;2.00;;;;;;;;;;5008234;28;20030;-76
2023/05/29 09:10:55;;;;;;;4.50;2.17;;;;;;;;;;5011862;28;20546;-75
2023/05/29 09:13:22;;;;;;;4.55;1.80;;;;;;;;;;5027606;28;20044;-76
2023/05/29 09:15:48;;;;;;;8.50;2.05;;;;;;;;;;5012356;28;20081;-74
2023/05/29 09:18:17;;;;;;;3.85;1.73;;;;;;;;;;5005284;28;20038;-74
2023/05/29 09:20:43;;;;;;;22.85;5.35;;;;;;;;;;5003063;28;20771;-73
2023/05/29 09:23:10;;;;;;;11.75;5.30;;;;;;;;;;5001458;28;20064;-75
2023/05/29 09:25:42;;;;;;;10.05;2.35;;;;;;;;;;5007989;28;20662;-75
2023/05/29 09:28:09;;;;;;;5.43;1.95;;;;;;;;;;5006434;28;20021;-74
2023/05/29 09:30:41;;;;;;;5.20;2.15;;;;;;;;;;4998837;28;20030;-76
2023/05/29 09:33:07;;;;;;;;;;;;;;;;;;5002279;28;20112;-73
2023/05/29 09:35:59;;;;;;;8.25;2.53;;;;;;;;;;5003587;28;19920;-75
2023/05/29 09:38:25;;;;;;;4.93;2.35;;;;;;;;;;5023483;28;20058;-75
2023/05/29 09:40:55;;;;;;;4.07;2.30;;;;;;;;;;5000623;28;20122;-74
2023/05/29 09:43:23;;;;;;;6.90;2.35;;;;;;;;;;5013328;28;20034;-76
2023/05/29 09:45:50;;;;;;;10.40;3.15;;;;;;;;;;4999404;28;20057;-73
2023/05/29 09:48:26;;;;;;;6.00;2.25;;;;;;;;;;5004540;28;20104;-73
2023/05/29 09:51:16;;;;;;;3.00;1.75;;;;;;;;;;5002742;28;20335;-75
2023/05/29 09:53:43;;;;;;;8.48;1.88;;;;;;;;;;5002554;28;20064;-73
2023/05/29 09:56:11;;;;;;;7.65;2.47;;;;;;;;;;5013109;28;20057;-74
2023/05/29 09:58:45;;;;;;;4.93;1.75;;;;;;;;;;4993017;28;20086;-76
2023/05/29 10:01:13;;;;;;;7.28;2.80;;;;;;;;;;5005632;28;20074;-76
2023/05/29 10:03:39;;;;;;;6.25;2.25;;;;;;;;;;5006630;28;20032;-76
2023/05/29 10:06:23;;;;;;;7.25;2.42;;;;;;;;;;5004512;28;20061;-74
2023/05/29 10:08:53;;;;;;;9.75;2.45;;;;;;;;;;5005830;28;20092;-75
2023/05/29 10:11:26;;;;;;;3.58;1.95;;;;;;;;;;5005749;28;20030;-74
2023/05/29 10:13:57;;;;;;;6.25;2.17;;;;;;;;;;5027136;28;20531;-75
2023/05/29 10:16:25;;;;;;;4.70;1.90;;;;;;;;;;5011308;28;20038;-74
2023/05/29 10:18:55;;;;;;;5.93;2.13;;;;;;;;;;5016890;28;20026;-72
2023/05/29 10:21:21;;;;;;;2.58;1.73;;;;;;;;;;5010211;28;20044;-74
2023/05/29 10:23:50;;;;;;;5.60;2.20;;;;;;;;;;5003372;28;20034;-74
2023/05/29 10:26:30;;;;;;;6.05;2.28;;;;;;;;;;5015554;28;20030;-74
2023/05/29 10:29:21;;;;;;;5.15;2.42;;;;;;;;;;5039289;28;20030;-76
2023/05/29 10:32:12;;;;;;;6.35;2.40;;;;;;;;;;5015773;28;20057;-74
2023/05/29 10:35:08;;;;;;;6.20;2.10;;;;;;;;;;5032335;28;20034;-75
2023/05/29 10:37:57;;;;;;;3.88;2.60;;;;;;;;;;5015880;28;20121;-76
2023/05/29 10:40:27;;;;;;;3.97;2.45;;;;;;;;;;5020871;28;20006;-77
2023/05/29 10:42:58;;;;;;;5.47;2.28;;;;;;;;;;5021312;28;20075;-77
2023/05/29 10:45:42;;;;;;;6.30;2.63;;;;;;;;;;5023703;28;20033;-77
2023/05/29 10:48:10;;;;;;;7.78;2.40;;;;;;;;;;5016726;28;20080;-75
2023/05/29 10:50:43;;;;;;;5.20;2.45;;;;;;;;;;5012106;28;20040;-77
2023/05/29 10:53:25;;;;;;;7.78;2.65;;;;;;;;;;5003953;28;20078;-75
2023/05/29 10:55:52;;;;;;;4.38;2.20;;;;;;;;;;4992406;28;20038;-76
2023/05/29 10:58:25;;;;;;;3.70;2.17;;;;;;;;;;5012084;28;20022;-76
2023/05/29 11:00:57;;;;;;;4.47;2.17;;;;;;;;;;5008514;28;20034;-74
2023/05/29 11:03:30;;;;;;;3.75;2.30;;;;;;;;;;5023781;28;20026;-76
2023/05/29 11:06:05;;;;;;;5.03;3.08;;;;;;;;;;5003993;28;20068;-75
2023/05/29 11:08:47;;;;;;;4.15;2.03;;;;;;;;;;5007406;28;20050;-75
2023/05/29 11:11:38;;;;;;;8.88;5.15;;;;;;;;;;5009632;28;20060;-76
2023/05/29 11:14:05;;;;;;;4.82;2.35;;;;;;;;;;5004841;28;20034;-76
2023/05/29 11:16:30;;;;;;;6.28;2.17;;;;;;;;;;5002853;28;20064;-76
2023/05/29 11:18:58;;;;;;;6.90;2.47;;;;;;;;;;4997365;28;20045;-76
2023/05/29 11:21:34;;;;;;;3.00;1.98;;;;;;;;;;5005724;28;20034;-74
2023/05/29 11:24:04;;;;;;;5.03;2.20;;;;;;;;;;5006327;28;20351;-76
2023/05/29 11:26:32;;;;;;;4.30;2.28;;;;;;;;;;5004015;28;20046;-75
2023/05/29 11:29:10;;;;;;;6.90;2.28;;;;;;;;;;5003490;28;20026;-76
2023/05/29 11:31:40;;;;;;;9.65;2.60;;;;;;;;;;5002080;28;20026;-76
2023/05/29 11:34:10;;;;;;;3.15;2.17;;;;;;;;;;5008956;28;20034;-75
2023/05/29 11:36:37;;;;;;;3.97;2.47;;;;;;;;;;5008211;28;20025;-75
2023/05/29 11:39:07;;;;;;;4.20;2.13;;;;;;;;;;5012523;28;20026;-75
2023/05/29 11:41:54;;;;;;;4.40;1.98;;;;;;;;;;5009955;28;20115;-76
2023/05/29 11:44:20;;;;;;;4.32;1.73;;;;;;;;;;5002970;28;20121;-73
2023/05/29 11:46:46;;;;;;;8.65;2.42;;;;;;;;;;5008812;28;20125;-75
2023/05/29 11:49:12;;;;;;;14.35;2.22;;;;;;;;;;5025482;28;20049;-76
2023/05/29 11:51:42;;;;;;;3.95;2.45;;;;;;;;;;5012944;28;20050;-77
2023/05/29 11:54:07;;;;;;;4.97;2.20;;;;;;;;;;5010972;28;20049;-77
2023/05/29 11:57:01;;;;;;;4.32;2.00;;;;;;;;;;5016164;28;20431;-76
2023/05/29 11:59:30;;;;;;;4.68;2.10;;;;;;;;;;5005587;28;20023;-75
2023/05/29 12:01:56;;;;;;;3.35;2.38;;;;;;;;;;5009726;28;20044;-75
2023/05/29 12:04:22;;;;;;;4.40;1.75;;;;;;;;;;4982643;28;20117;-74
2023/05/29 12:06:55;;;;;;;2.35;1.83;;;;;;;;;;5004112;28;20030;-75
2023/05/29 12:09:26;;;;;;;6.38;2.33;;;;;;;;;;5006225;28;20096;-74
2023/05/29 12:12:04;;;;;;;9.90;2.03;;;;;;;;;;5008332;28;20092;-75
2023/05/29 12:14:30;;;;;;;7.15;1.80;;;;;;;;;;5009624;28;20662;-75
2023/05/29 12:16:57;;;;;;;7.50;2.20;;;;;;;;;;4990021;28;20035;-76
2023/05/29 12:19:23;;;;;;;5.60;2.17;;;;;;;;;;5005114;28;20140;-75
2023/05/29 12:21:49;;;;;;;4.43;2.50;;;;;;;;;;5006414;28;20156;-75
2023/05/29 12:24:15;;;;;;;9.85;2.55;;;;;;;;;;5010084;28;20022;-74
2023/05/29 12:27:00;;;;;;;3.05;1.90;;;;;;;;;;5007733;28;20096;-75
2023/05/29 12:29:34;;;;;;;4.25;2.00;;;;;;;;;;5008461;28;20026;-75
2023/05/29 12:32:02;;;;;;;5.28;2.67;;;;;;;;;;5006235;28;20099;-76
2023/05/29 12:34:36;;;;;;;2.58;1.75;;;;;;;;;;5007887;28;20038;-73
2023/05/29 12:37:09;;;;;;;5.70;1.70;;;;;;;;;;5016444;28;20038;-76
2023/05/29 12:39:37;;;;;;;4.40;2.13;;;;;;;;;;5007782;28;20045;-75
2023/05/29 12:42:03;;;;;;;13.30;2.90;;;;;;;;;;5015534;28;20049;-74
2023/05/29 12:44:32;;;;;;;7.85;1.95;;;;;;;;;;5004502;28;20389;-75
2023/05/29 12:46:59;;;;;;;5.00;2.00;;;;;;;;;;5010706;28;20033;-74
2023/05/29 12:49:26;;;;;;;4.68;2.03;;;;;;;;;;5008386;28;20034;-75
2023/05/29 12:51:52;;;;;;;3.55;2.20;;;;;;;;;;5010346;28;20053;-75
2023/05/29 12:54:18;;;;;;;3.70;1.70;;;;;;;;;;5015411;28;20557;-76
2023/05/29 12:56:46;;;;;;;6.68;2.00;;;;;;;;;;5012367;28;20026;-76
2023/05/29 12:59:15;;;;;;;3.10;1.95;;;;;;;;;;5013041;28;20096;-75
2023/05/29 13:01:42;;;;;;;7.80;2.10;;;;;;;;;;5009897;28;20610;-76
2023/05/29 13:04:15;;;;;;;4.90;1.92;;;;;;;;;;5009615;28;20037;-77
2023/05/29 13:06:52;;;;;;;4.68;1.65;;;;;;;;;;5024489;28;20061;-77
2023/05/29 13:09:21;;;;;;;8.80;2.22;;;;;;;;;;5007394;28;20048;-75
2023/05/29 13:11:50;;;;;;;7.75;2.53;;;;;;;;;;4991105;28;20480;-76
2023/05/29 13:14:18;;;;;;;9.23;2.90;;;;;;;;;;5007173;28;20030;-74
2023/05/29 13:16:51;;;;;;;3.25;1.80;;;;;;;;;;5005349;28;20084;-76
2023/05/29 13:19:25;;;;;;;4.10;1.95;;;;;;;;;;5007379;28;20090;-76
2023/05/29 13:21:53;;;;;;;6.35;1.92;;;;;;;;;;5008631;28;20046;-75
2023/05/29 13:24:24;;;;;;;3.63;2.00;;;;;;;;;;5026091;28;20045;-75
2023/05/29 13:26:50;;;;;;;5.03;2.28;;;;;;;;;;5006758;28;20469;-76
2023/05/29 13:29:20;;;;;;;5.32;1.73;;;;;;;;;;5009823;28;20064;-76
2023/05/29 13:31:48;;;;;;;2.75;1.70;;;;;;;;;;5011944;28;20060;-74
2023/05/29 13:34:22;;;;;;;11.13;2.28;;;;;;;;;;4993380;28;20037;-74
2023/05/29 13:36:50;;;;;;;5.95;2.15;;;;;;;;;;4995241;28;20169;-75
2023/05/29 13:39:19;;;;;;;4.05;2.42;;;;;;;;;;5011877;28;20878;-76
2023/05/29 13:41:45;;;;;;;6.15;2.30;;;;;;;;;;5012724;28;20029;-76
2023/05/29 13:44:17;;;;;;;5.15;2.30;;;;;;;;;;5004673;28;20501;-75
2023/05/29 13:46:44;;;;;;;3.00;2.20;;;;;;;;;;5003187;28;20048;-74
2023/05/29 13:49:12;;;;;;;5.32;2.65;;;;;;;;;;5012834;28;20089;-77
2023/05/29 13:51:49;;;;;;;7.28;2.15;;;;;;;;;;5024555;28;20026;-76
2023/05/29 13:54:19;;;;;;;9.57;2.38;;;;;;;;;;5013242;28;20054;-76
2023/05/29 13:56:48;;;;;;;5.28;1.92;;;;;;;;;;5024210;28;20041;-76
2023/05/29 13:59:24;;;;;;;2.75;1.70;;;;;;;;;;5009298;28;20056;-76
2023/05/29 14:01:53;;;;;;;6.32;2.30;;;;;;;;;;5015375;28;20101;-75
2023/05/29 14:04:21;;;;;;;4.82;2.38;;;;;;;;;;5018033;28;20034;-74
2023/05/29 14:06:51;;;;;;;7.80;2.75;;;;;;;;;;5023355;28;20089;-77
2023/05/29 14:09:31;;;;;;;3.25;2.10;;;;;;;;;;5016690;28;20021;-76
2023/05/29 14:12:02;;;;;;;3.03;2.20;;;;;;;;;;5016940;28;20060;-75
2023/05/29 14:14:28;;;;;;;6.97;2.20;;;;;;;;;;5020992;28;20029;-76
2023/05/29 14:16:57;;;;;;;6.60;2.00;;;;;;;;;;5020788;28;20041;-76
2023/05/29 14:19:26;;;;;;;5.10;3.15;;;;;;;;;;5019568;28;20121;-76
2023/05/29 14:21:54;;;;;;;2.50;2.28;;;;;;;;;;5017914;28;20109;-76
2023/05/29 14:24:21;;;;;;;8.50;3.63;;;;;;;;;;5013725;28;20045;-76
2023/05/29 14:26:47;;;;;;;4.78;2.00;;;;;;;;;;5013237;28;20026;-74
2023/05/29 14:29:16;;;;;;;3.88;1.92;;;;;;;;;;5016248;28;20056;-76
2023/05/29 14:31:49;;;;;;;7.72;2.20;;;;;;;;;;5019893;28;20112;-77
2023/05/29 14:34:17;;;;;;;8.02;2.28;;;;;;;;;;4993047;28;20041;-76
2023/05/29 14:36:46;;;;;;;7.75;2.08;;;;;;;;;;5016777;28;20037;-75
2023/05/29 14:39:13;;;;;;;7.93;3.88;;;;;;;;;;5030026;28;20033;-77
2023/05/29 14:41:42;;;;;;;5.63;2.45;;;;;;;;;;5014979;28;20038;-76
2023/05/29 14:44:12;;;;;;;11.87;3.90;;;;;;;;;;5020676;28;20056;-76
2023/05/29 14:46:38;;;;;;;3.70;2.22;;;;;;;;;;5021782;28;20026;-75
2023/05/29 14:49:07;;;;;;;6.97;2.45;;;;;;;;;;5025937;28;20042;-77
2023/05/29 14:51:38;;;;;;;4.70;2.50;;;;;;;;;;5017332;28;20031;-77
2023/05/29 14:54:09;;;;;;;7.00;2.38;;;;;;;;;;5016309;28;20112;-77
2023/05/29 14:56:36;;;;;;;6.65;3.00;;;;;;;;;;5019955;28;20045;-76
2023/05/29 14:59:06;;;;;;;4.18;2.47;;;;;;;;;;5005366;28;20071;-76
2023/05/29 15:01:32;;;;;;;5.15;2.35;;;;;;;;;;5023303;28;20037;-76
2023/05/29 15:03:59;;;;;;;8.60;2.45;;;;;;;;;;5021636;28;20088;-76
2023/05/29 15:06:45;;;;;;;6.45;3.03;;;;;;;;;;5019075;28;20054;-78
2023/05/29 15:09:14;;;;;;;5.35;2.53;;;;;;;;;;5017065;28;20452;-77
2023/05/29 15:11:40;;;;;;;7.15;2.72;;;;;;;;;;5023466;28;20041;-76
2023/05/29 15:14:10;;;;;;;4.20;2.55;;;;;;;;;;5023707;28;20029;-77